KSQL/SQL METAR and TAF weather

Enter ICAO airport designator
Station Type Date Time Source
KSQL METAR 2021/08/02 01:53 UTC NOAA

KSQL 020153Z 26008KT 10SM FEW010 21/12 A3003


Station Type Date Time Source
KSQL Decoded METAR 2021/08/02 01:53 UTC NOAA

San Carlos Airport, CA, United States (KSQL) 37-31N 122-15W
Aug 01, 2021 - 09:53 PM EDT / 2021.08.02 0153 UTC
Wind: from the W (260 degrees) at 9 MPH (8 KT):0
Visibility: 10 mile(s):0
Sky conditions: mostly clear
Temperature: 69 F (21 C)
Dew Point: 53 F (12 C)
Relative Humidity: 56%
Pressure (altimeter): 30.03 in. Hg (1016 hPa)
ob: KSQL 020153Z 26008KT 10SM FEW010 21/12 A3003
cycle: 2

Station Type Date Time Source
KSQL TAF UTC NOAA

Error!

Example: see airport list